Time;durP1;ratioP1;P1;durP2;ratioP2;P2;SDS_P1;SDS_P2;PMS_P1;PMS_P2;Temp;Humidity;BMP_temperature;BMP_pressure;BME280_temperature;BME280_humidity;BME280_pressure;Samples;Min_cycle;Max_cycle;Signal;HPM_P1;HPM_P2
2024/01/06 06:00:14;;;;;;;2.30;1.97;;;;;;;;;;6133381;23;20453;-70
2024/01/06 06:02:40;;;;;;;4.07;2.17;;;;;;;;;;5011630;28;20442;-71
2024/01/06 06:05:06;;;;;;;4.93;2.43;;;;;;;;;;5013315;28;20412;-72
2024/01/06 06:07:32;;;;;;;5.97;2.40;;;;;;;;;;5013390;28;20789;-71
2024/01/06 06:09:58;;;;;;;6.83;2.53;;;;;;;;;;5011922;28;20418;-72
2024/01/06 06:12:24;;;;;;;10.40;1.87;;;;;;;;;;4994686;28;20429;-72
2024/01/06 06:14:50;;;;;;;2.20;1.87;;;;;;;;;;4993662;28;20415;-72
2024/01/06 06:17:16;;;;;;;8.50;2.40;;;;;;;;;;4993516;28;20524;-72
2024/01/06 06:19:42;;;;;;;7.70;2.67;;;;;;;;;;4994085;28;20415;-71
2024/01/06 06:22:09;;;;;;;7.37;2.60;;;;;;;;;;4994975;28;20427;-72
2024/01/06 06:24:34;;;;;;;7.60;2.80;;;;;;;;;;4993345;28;20773;-72
2024/01/06 06:27:00;;;;;;;7.53;3.00;;;;;;;;;;4993223;28;20501;-71
2024/01/06 06:29:28;;;;;;;5.07;2.70;;;;;;;;;;4993417;28;20414;-72
2024/01/06 06:31:54;;;;;;;2.90;2.53;;;;;;;;;;4993331;28;20965;-72
2024/01/06 06:34:20;;;;;;;7.43;2.77;;;;;;;;;;4993167;28;20423;-71
2024/01/06 06:36:46;;;;;;;3.60;2.63;;;;;;;;;;4993138;28;20450;-72
2024/01/06 06:39:12;;;;;;;6.10;2.70;;;;;;;;;;5008204;28;20511;-71
2024/01/06 06:41:38;;;;;;;8.03;2.73;;;;;;;;;;4992961;28;20493;-72
2024/01/06 06:44:04;;;;;;;5.43;2.37;;;;;;;;;;4993042;28;20418;-72
2024/01/06 06:46:30;;;;;;;6.53;3.77;;;;;;;;;;4997210;28;20411;-71
2024/01/06 06:48:56;;;;;;;7.67;2.60;;;;;;;;;;4994503;28;20419;-71
2024/01/06 06:51:25;;;;;;;6.47;3.20;;;;;;;;;;4996872;28;20526;-71
2024/01/06 06:53:51;;;;;;;5.67;2.80;;;;;;;;;;4998593;28;20785;-71
2024/01/06 06:56:17;;;;;;;4.33;2.67;;;;;;;;;;4995093;28;20485;-71
2024/01/06 06:58:43;;;;;;;3.50;2.30;;;;;;;;;;4993782;28;20421;-71
2024/01/06 07:01:09;;;;;;;9.50;4.13;;;;;;;;;;4994331;28;20514;-71
2024/01/06 07:03:35;;;;;;;3.90;2.40;;;;;;;;;;4994130;28;20498;-71
2024/01/06 07:06:00;;;;;;;4.70;2.70;;;;;;;;;;4992664;28;20498;-71
2024/01/06 07:08:27;;;;;;;7.87;2.90;;;;;;;;;;4992726;28;20406;-72
2024/01/06 07:10:53;;;;;;;5.20;3.03;;;;;;;;;;4992575;28;20454;-71
2024/01/06 07:13:19;;;;;;;4.77;2.80;;;;;;;;;;4992791;28;20403;-71
2024/01/06 07:15:45;;;;;;;5.60;2.57;;;;;;;;;;4992634;28;20914;-71
2024/01/06 07:18:11;;;;;;;10.90;3.33;;;;;;;;;;4992748;28;20918;-72
2024/01/06 07:20:37;;;;;;;4.60;2.60;;;;;;;;;;4992431;28;20449;-71
2024/01/06 07:23:03;;;;;;;8.80;2.80;;;;;;;;;;5007816;28;20764;-72
2024/01/06 07:25:30;;;;;;;4.37;2.70;;;;;;;;;;4992332;28;20497;-72
2024/01/06 07:27:56;;;;;;;3.37;2.43;;;;;;;;;;4992951;28;20902;-71
2024/01/06 07:30:22;;;;;;;3.93;2.50;;;;;;;;;;4993014;28;20502;-71
2024/01/06 07:32:49;;;;;;;10.90;2.83;;;;;;;;;;4992539;28;20415;-71
2024/01/06 07:35:16;;;;;;;3.53;2.00;;;;;;;;;;4992358;28;20422;-71
2024/01/06 07:37:42;;;;;;;3.40;2.10;;;;;;;;;;4992898;28;20787;-71
2024/01/06 07:40:08;;;;;;;8.00;2.47;;;;;;;;;;4992727;28;20426;-71
2024/01/06 07:42:34;;;;;;;8.70;2.17;;;;;;;;;;4992530;28;20414;-71
2024/01/06 07:45:00;;;;;;;4.47;2.53;;;;;;;;;;4993053;28;20490;-72
2024/01/06 07:47:26;;;;;;;6.30;2.33;;;;;;;;;;4992546;28;20415;-71
2024/01/06 07:49:53;;;;;;;4.73;2.37;;;;;;;;;;4992330;28;20415;-71
2024/01/06 07:52:18;;;;;;;2.80;2.00;;;;;;;;;;4992252;28;20749;-71
2024/01/06 07:54:44;;;;;;;5.90;2.47;;;;;;;;;;4992342;28;20422;-71
2024/01/06 07:57:11;;;;;;;4.57;2.17;;;;;;;;;;5007448;28;20470;-71
2024/01/06 07:59:37;;;;;;;3.20;2.50;;;;;;;;;;4992263;28;20497;-71
2024/01/06 08:02:03;;;;;;;3.90;2.10;;;;;;;;;;4992026;28;20618;-72
2024/01/06 08:04:29;;;;;;;4.30;2.20;;;;;;;;;;4991979;28;20797;-72
2024/01/06 08:06:55;;;;;;;5.23;2.60;;;;;;;;;;4992073;28;20441;-73
2024/01/06 08:09:23;;;;;;;5.63;2.50;;;;;;;;;;4992456;28;20490;-72
2024/01/06 08:11:49;;;;;;;8.03;2.50;;;;;;;;;;4995655;28;20457;-73
2024/01/06 08:14:17;;;;;;;2.90;2.30;;;;;;;;;;4995603;28;20502;-72
2024/01/06 08:16:43;;;;;;;6.20;2.50;;;;;;;;;;4995735;28;20453;-71
2024/01/06 08:19:09;;;;;;;5.60;2.20;;;;;;;;;;4995781;28;20418;-71
2024/01/06 08:21:35;;;;;;;10.37;2.50;;;;;;;;;;5010534;28;20435;-71
2024/01/06 08:24:02;;;;;;;2.73;2.20;;;;;;;;;;4996092;28;20406;-71
2024/01/06 08:26:28;;;;;;;2.60;2.40;;;;;;;;;;4995804;28;20429;-71
2024/01/06 08:28:54;;;;;;;2.80;2.03;;;;;;;;;;4995454;28;20816;-71
2024/01/06 08:31:20;;;;;;;3.00;1.90;;;;;;;;;;4995384;28;20438;-72
2024/01/06 08:33:46;;;;;;;2.90;1.90;;;;;;;;;;4995268;28;20422;-70
2024/01/06 08:36:12;;;;;;;4.93;2.07;;;;;;;;;;4995201;28;20825;-70
2024/01/06 08:38:38;;;;;;;6.93;1.87;;;;;;;;;;4995286;28;20471;-70
2024/01/06 08:41:04;;;;;;;4.33;1.90;;;;;;;;;;4995172;28;20854;-70
2024/01/06 08:43:30;;;;;;;3.47;1.87;;;;;;;;;;4995226;28;20898;-71
2024/01/06 08:45:56;;;;;;;2.87;1.83;;;;;;;;;;4995622;28;20438;-71
2024/01/06 08:48:22;;;;;;;4.33;2.03;;;;;;;;;;4995136;28;20414;-70
2024/01/06 08:50:48;;;;;;;2.30;2.10;;;;;;;;;;4994886;28;20431;-71
2024/01/06 08:53:15;;;;;;;9.17;3.07;;;;;;;;;;4994985;28;20415;-71
2024/01/06 08:55:41;;;;;;;3.73;1.70;;;;;;;;;;4994822;28;20415;-70
2024/01/06 08:58:07;;;;;;;5.63;1.90;;;;;;;;;;4993056;28;20467;-71
2024/01/06 09:00:33;;;;;;;5.73;1.93;;;;;;;;;;4992331;28;20868;-71
2024/01/06 09:02:59;;;;;;;3.53;1.87;;;;;;;;;;4992982;28;20411;-71
2024/01/06 09:05:25;;;;;;;3.00;1.90;;;;;;;;;;4994455;28;20976;-76
2024/01/06 09:07:51;;;;;;;7.27;2.20;;;;;;;;;;4994775;28;20439;-73
2024/01/06 09:10:18;;;;;;;2.17;1.77;;;;;;;;;;4994644;28;20498;-71
2024/01/06 09:12:44;;;;;;;3.80;2.60;;;;;;;;;;4995562;28;20473;-71
2024/01/06 09:15:10;;;;;;;2.90;1.70;;;;;;;;;;4995913;28;20498;-71
2024/01/06 09:17:35;;;;;;;2.40;2.20;;;;;;;;;;4993822;28;20557;-72
2024/01/06 09:20:02;;;;;;;3.13;1.93;;;;;;;;;;4995262;28;20426;-71
2024/01/06 09:22:28;;;;;;;4.30;2.70;;;;;;;;;;4993521;28;20430;-71
2024/01/06 09:24:54;;;;;;;2.37;2.17;;;;;;;;;;4992909;28;20786;-71
2024/01/06 09:27:20;;;;;;;2.70;1.90;;;;;;;;;;4991296;28;20563;-73
2024/01/06 09:29:46;;;;;;;2.70;1.93;;;;;;;;;;4980055;28;20442;-72
2024/01/06 09:32:12;;;;;;;5.03;1.90;;;;;;;;;;4994277;28;20434;-72
2024/01/06 09:34:39;;;;;;;2.00;1.80;;;;;;;;;;4992610;28;20438;-72
2024/01/06 09:37:05;;;;;;;6.60;2.43;;;;;;;;;;4993921;28;20469;-71
2024/01/06 09:39:31;;;;;;;3.33;2.27;;;;;;;;;;4993518;28;20803;-71
2024/01/06 09:41:57;;;;;;;3.77;2.17;;;;;;;;;;4988233;28;20442;-72
2024/01/06 09:44:23;;;;;;;2.73;2.30;;;;;;;;;;4986638;28;20837;-71
2024/01/06 09:46:50;;;;;;;4.70;2.87;;;;;;;;;;4989491;28;20431;-70
2024/01/06 09:49:21;;;;;;;5.40;2.10;;;;;;;;;;4988007;28;20419;-70
2024/01/06 09:51:51;;;;;;;1.93;1.90;;;;;;;;;;4993156;28;20442;-71
2024/01/06 09:54:19;;;;;;;2.60;2.23;;;;;;;;;;4994879;28;20623;-71
2024/01/06 09:56:47;;;;;;;3.90;2.73;;;;;;;;;;4993414;28;20965;-71
2024/01/06 09:59:13;;;;;;;4.20;2.33;;;;;;;;;;4995149;28;20505;-72
2024/01/06 10:01:39;;;;;;;3.07;2.33;;;;;;;;;;4992410;28;20455;-72
2024/01/06 10:04:05;;;;;;;2.43;2.30;;;;;;;;;;4995008;28;20418;-71
2024/01/06 10:06:31;;;;;;;4.37;2.40;;;;;;;;;;4994113;28;20415;-72
2024/01/06 10:08:57;;;;;;;7.20;2.50;;;;;;;;;;4993538;28;20411;-72
2024/01/06 10:11:23;;;;;;;3.43;2.40;;;;;;;;;;4993463;28;20947;-72
2024/01/06 10:13:54;;;;;;;4.17;2.20;;;;;;;;;;4993783;28;20411;-72
2024/01/06 10:16:20;;;;;;;2.47;2.27;;;;;;;;;;4994195;28;20459;-72
2024/01/06 10:18:46;;;;;;;3.57;2.20;;;;;;;;;;4994194;28;20455;-73
2024/01/06 10:21:13;;;;;;;2.70;2.33;;;;;;;;;;4994170;28;20462;-72
2024/01/06 10:23:39;;;;;;;2.73;2.27;;;;;;;;;;4993932;28;20414;-72
2024/01/06 10:26:05;;;;;;;2.93;2.07;;;;;;;;;;4993692;28;20406;-73
2024/01/06 10:28:32;;;;;;;3.60;2.33;;;;;;;;;;4994165;28;20490;-73
2024/01/06 10:30:58;;;;;;;3.17;2.37;;;;;;;;;;4994347;28;20431;-73
2024/01/06 10:33:25;;;;;;;4.07;1.90;;;;;;;;;;4992239;28;20972;-70
2024/01/06 10:35:54;;;;;;;3.13;2.47;;;;;;;;;;4993542;28;20907;-76
2024/01/06 10:38:20;;;;;;;2.17;1.87;;;;;;;;;;4993315;28;20423;-72
2024/01/06 10:41:09;;;;;;;3.23;2.33;;;;;;;;;;4991788;28;20985;-71
2024/01/06 10:43:37;;;;;;;2.80;2.00;;;;;;;;;;4993009;28;20914;-72
2024/01/06 10:46:10;;;;;;;3.73;3.30;;;;;;;;;;4992565;28;20450;-71
2024/01/06 10:48:38;;;;;;;4.30;2.93;;;;;;;;;;4992082;28;20926;-72
2024/01/06 10:51:07;;;;;;;4.23;2.70;;;;;;;;;;4992545;28;20430;-73
2024/01/06 10:53:35;;;;;;;5.30;3.00;;;;;;;;;;4992325;28;20826;-71
2024/01/06 10:56:02;;;;;;;4.70;2.17;;;;;;;;;;4992726;28;20414;-70
2024/01/06 10:58:28;;;;;;;2.57;2.37;;;;;;;;;;4992843;28;20403;-71
2024/01/06 11:00:57;;;;;;;3.93;2.07;;;;;;;;;;4992360;28;20439;-71
2024/01/06 11:03:23;;;;;;;3.47;2.43;;;;;;;;;;4992643;28;20446;-71
2024/01/06 11:05:49;;;;;;;4.33;2.20;;;;;;;;;;4993209;28;20756;-71
2024/01/06 11:08:17;;;;;;;6.20;2.30;;;;;;;;;;4992711;28;20410;-72
2024/01/06 11:10:44;;;;;;;2.73;2.50;;;;;;;;;;5009673;28;20818;-71
2024/01/06 11:13:11;;;;;;;3.70;2.13;;;;;;;;;;4994220;28;20422;-71
2024/01/06 11:15:42;;;;;;;2.97;2.87;;;;;;;;;;4992214;28;20465;-70
2024/01/06 11:18:07;;;;;;;4.20;2.60;;;;;;;;;;4992541;28;20549;-70
2024/01/06 11:20:34;;;;;;;2.63;2.27;;;;;;;;;;4992574;28;20911;-71
2024/01/06 11:23:20;;;;;;;3.07;2.53;;;;;;;;;;4992745;28;20758;-69
2024/01/06 11:25:46;;;;;;;3.80;2.10;;;;;;;;;;4992401;28;20410;-69
2024/01/06 11:28:12;;;;;;;3.00;2.60;;;;;;;;;;4992841;28;20407;-69
2024/01/06 11:30:40;;;;;;;2.83;2.63;;;;;;;;;;4988352;28;20496;-70
2024/01/06 11:33:06;;;;;;;2.30;2.10;;;;;;;;;;4985671;28;20505;-70
2024/01/06 11:35:32;;;;;;;5.97;2.57;;;;;;;;;;4992655;28;20435;-71
2024/01/06 11:38:01;;;;;;;4.47;3.07;;;;;;;;;;4992430;28;20482;-70
2024/01/06 11:40:37;;;;;;;2.87;2.43;;;;;;;;;;4992270;28;20419;-72
2024/01/06 11:43:11;;;;;;;4.90;2.77;;;;;;;;;;4992913;28;20411;-71
2024/01/06 11:45:38;;;;;;;4.67;3.37;;;;;;;;;;4994434;28;20944;-71
2024/01/06 11:48:05;;;;;;;4.03;2.70;;;;;;;;;;4995902;28;20485;-71
2024/01/06 11:50:32;;;;;;;5.63;3.50;;;;;;;;;;4996015;28;20443;-72
2024/01/06 11:52:59;;;;;;;3.73;2.90;;;;;;;;;;4996087;28;20425;-72
2024/01/06 11:55:27;;;;;;;5.20;3.60;;;;;;;;;;4995833;28;20414;-72
2024/01/06 11:57:54;;;;;;;4.37;3.10;;;;;;;;;;4995825;28;20492;-72
2024/01/06 12:00:20;;;;;;;5.20;2.97;;;;;;;;;;4989896;28;20411;-72
2024/01/06 12:02:46;;;;;;;7.30;3.10;;;;;;;;;;4993299;28;20845;-73
2024/01/06 12:05:15;;;;;;;8.27;3.70;;;;;;;;;;4995331;28;20411;-71
2024/01/06 12:07:42;;;;;;;3.83;3.30;;;;;;;;;;4995510;28;20415;-73
2024/01/06 12:10:09;;;;;;;5.90;3.40;;;;;;;;;;4993043;28;20804;-72
2024/01/06 12:12:34;;;;;;;3.83;3.30;;;;;;;;;;4994960;28;20517;-72
2024/01/06 12:15:00;;;;;;;4.10;3.03;;;;;;;;;;4995547;28;20510;-72
2024/01/06 12:17:31;;;;;;;4.57;3.07;;;;;;;;;;4995187;28;20462;-72
2024/01/06 12:19:57;;;;;;;6.20;3.13;;;;;;;;;;4995608;28;20421;-73
2024/01/06 12:22:23;;;;;;;5.43;3.60;;;;;;;;;;4994236;28;20463;-72
2024/01/06 12:24:52;;;;;;;6.03;3.10;;;;;;;;;;4995154;28;21002;-72
2024/01/06 12:27:21;;;;;;;5.30;3.70;;;;;;;;;;5000489;28;20437;-71
2024/01/06 12:29:47;;;;;;;6.40;4.07;;;;;;;;;;4990511;28;20430;-71
2024/01/06 12:32:13;;;;;;;9.30;3.60;;;;;;;;;;4995423;28;20439;-74
2024/01/06 12:34:39;;;;;;;7.20;5.43;;;;;;;;;;4995239;28;20414;-72
2024/01/06 12:37:07;;;;;;;7.57;4.70;;;;;;;;;;4995484;28;20454;-75
2024/01/06 12:39:33;;;;;;;7.63;4.73;;;;;;;;;;4995360;28;20407;-72
2024/01/06 12:42:01;;;;;;;7.70;4.43;;;;;;;;;;4995191;28;20950;-72
2024/01/06 12:44:28;;;;;;;8.63;4.63;;;;;;;;;;4994880;28;20415;-71
2024/01/06 12:46:54;;;;;;;7.30;5.27;;;;;;;;;;4987730;28;20542;-74
2024/01/06 12:49:20;;;;;;;5.20;3.90;;;;;;;;;;4994981;28;20452;-75
2024/01/06 12:51:46;;;;;;;6.77;4.53;;;;;;;;;;4977778;28;20446;-74
2024/01/06 12:54:12;;;;;;;6.33;4.40;;;;;;;;;;4993087;28;20439;-73
2024/01/06 12:56:38;;;;;;;7.53;4.90;;;;;;;;;;4993443;28;21006;-72
2024/01/06 12:59:04;;;;;;;8.60;4.50;;;;;;;;;;4994688;28;20643;-73
2024/01/06 13:01:30;;;;;;;6.73;4.63;;;;;;;;;;4994655;28;20765;-72
2024/01/06 13:03:59;;;;;;;5.20;3.53;;;;;;;;;;4992380;28;20419;-74
2024/01/06 13:06:25;;;;;;;7.70;4.80;;;;;;;;;;4993539;28;20509;-73
2024/01/06 13:08:51;;;;;;;7.47;4.50;;;;;;;;;;4993209;28;20423;-73
2024/01/06 13:11:18;;;;;;;8.07;4.83;;;;;;;;;;4975129;28;20530;-73
2024/01/06 13:13:44;;;;;;;6.80;3.93;;;;;;;;;;4974846;28;20420;-73
2024/01/06 13:16:11;;;;;;;9.40;5.20;;;;;;;;;;4974831;28;20427;-71
2024/01/06 13:18:36;;;;;;;7.30;4.47;;;;;;;;;;4982484;28;20419;-74
2024/01/06 13:21:02;;;;;;;6.10;4.73;;;;;;;;;;4994817;28;20794;-72
2024/01/06 13:23:28;;;;;;;7.63;5.53;;;;;;;;;;4994161;28;20842;-73
2024/01/06 13:25:54;;;;;;;9.37;5.13;;;;;;;;;;4994325;28;20481;-72
2024/01/06 13:28:21;;;;;;;8.27;5.30;;;;;;;;;;4994257;28;20434;-73
2024/01/06 13:30:49;;;;;;;7.13;4.93;;;;;;;;;;4994299;28;20937;-72
2024/01/06 13:33:15;;;;;;;9.33;5.10;;;;;;;;;;4995510;28;20415;-72
2024/01/06 13:35:41;;;;;;;7.33;5.40;;;;;;;;;;4993734;28;20407;-72
2024/01/06 13:38:08;;;;;;;9.67;6.03;;;;;;;;;;4994208;28;20466;-72
2024/01/06 13:40:34;;;;;;;11.20;6.37;;;;;;;;;;4994183;28;20430;-72
2024/01/06 13:43:00;;;;;;;9.13;6.23;;;;;;;;;;4994165;28;20496;-71
2024/01/06 13:45:26;;;;;;;9.33;5.47;;;;;;;;;;4994351;28;20506;-71
2024/01/06 13:47:52;;;;;;;8.50;5.63;;;;;;;;;;4992909;28;20510;-71
2024/01/06 13:50:19;;;;;;;7.70;5.07;;;;;;;;;;4993893;28;20415;-70
2024/01/06 13:52:45;;;;;;;10.33;6.20;;;;;;;;;;4994258;28;20510;-71
2024/01/06 13:55:12;;;;;;;11.07;5.90;;;;;;;;;;4993777;28;20918;-71
2024/01/06 13:57:41;;;;;;;11.60;6.10;;;;;;;;;;4994216;28;20458;-71
2024/01/06 14:00:08;;;;;;;12.97;6.50;;;;;;;;;;4994011;28;20410;-71
2024/01/06 14:02:34;;;;;;;16.40;7.67;;;;;;;;;;4993987;28;20946;-71
2024/01/06 14:05:00;;;;;;;12.23;6.40;;;;;;;;;;4993935;28;20411;-72
2024/01/06 14:07:26;;;;;;;12.37;6.67;;;;;;;;;;4993875;28;20822;-71
2024/01/06 14:09:52;;;;;;;9.50;6.73;;;;;;;;;;4993940;28;20918;-70
2024/01/06 14:12:19;;;;;;;13.20;7.60;;;;;;;;;;4992257;28;20530;-71
2024/01/06 14:14:46;;;;;;;13.50;7.67;;;;;;;;;;4993306;28;20462;-71
2024/01/06 14:17:12;;;;;;;18.30;7.90;;;;;;;;;;4993630;28;20518;-71
2024/01/06 14:19:37;;;;;;;13.20;7.40;;;;;;;;;;4993641;28;20446;-71
2024/01/06 14:22:04;;;;;;;10.83;6.70;;;;;;;;;;4993256;28;20514;-72
2024/01/06 14:24:30;;;;;;;14.57;9.00;;;;;;;;;;4993556;28;20885;-72
2024/01/06 14:26:57;;;;;;;15.67;8.00;;;;;;;;;;4991828;28;20510;-73
2024/01/06 14:29:23;;;;;;;12.43;6.77;;;;;;;;;;4992954;28;20446;-71
2024/01/06 14:31:49;;;;;;;15.70;6.77;;;;;;;;;;4993264;28;20434;-72
2024/01/06 14:34:15;;;;;;;12.97;7.43;;;;;;;;;;4992914;28;20411;-72
2024/01/06 14:36:47;;;;;;;15.80;7.80;;;;;;;;;;4992906;28;20871;-71
2024/01/06 14:39:14;;;;;;;14.20;7.20;;;;;;;;;;4993027;28;20399;-72
2024/01/06 14:41:41;;;;;;;11.40;6.53;;;;;;;;;;4992810;28;20442;-72
2024/01/06 14:44:07;;;;;;;13.80;7.20;;;;;;;;;;4992912;28;20415;-72
2024/01/06 14:46:35;;;;;;;14.00;7.00;;;;;;;;;;4992825;28;20415;-72
2024/01/06 14:49:01;;;;;;;13.93;7.77;;;;;;;;;;4992727;28;20415;-73
2024/01/06 14:51:27;;;;;;;13.73;7.60;;;;;;;;;;4991558;28;20485;-72
2024/01/06 14:53:53;;;;;;;13.97;7.40;;;;;;;;;;4991518;28;20429;-72
2024/01/06 14:56:18;;;;;;;12.00;8.57;;;;;;;;;;4992851;28;20771;-72
2024/01/06 14:58:44;;;;;;;16.97;7.53;;;;;;;;;;4992645;28;20399;-73
2024/01/06 15:01:10;;;;;;;11.73;7.17;;;;;;;;;;4992179;28;20508;-72
2024/01/06 15:03:36;;;;;;;12.27;6.87;;;;;;;;;;4992556;28;20771;-72
2024/01/06 15:06:03;;;;;;;12.60;7.53;;;;;;;;;;4992541;28;20410;-71
2024/01/06 15:08:29;;;;;;;14.67;8.50;;;;;;;;;;4993576;28;20493;-71
2024/01/06 15:10:55;;;;;;;15.83;7.80;;;;;;;;;;4992648;28;20771;-72
2024/01/06 15:13:21;;;;;;;17.53;8.00;;;;;;;;;;4994431;28;20778;-72
2024/01/06 15:15:48;;;;;;;12.33;7.30;;;;;;;;;;4996562;28;20857;-72
2024/01/06 15:18:14;;;;;;;13.03;7.63;;;;;;;;;;4994039;28;20478;-71
2024/01/06 15:20:40;;;;;;;16.57;8.83;;;;;;;;;;4992959;28;20930;-71
2024/01/06 15:23:06;;;;;;;15.40;8.03;;;;;;;;;;4996578;28;20419;-72
2024/01/06 15:25:32;;;;;;;14.70;8.60;;;;;;;;;;4996623;28;20540;-72
2024/01/06 15:27:58;;;;;;;13.27;7.67;;;;;;;;;;4994973;28;20411;-71
2024/01/06 15:30:24;;;;;;;12.77;7.80;;;;;;;;;;4994315;28;20411;-72
2024/01/06 15:32:50;;;;;;;14.73;7.80;;;;;;;;;;4992634;28;20434;-72
2024/01/06 15:35:16;;;;;;;14.07;8.40;;;;;;;;;;4992285;28;20509;-72
2024/01/06 15:37:42;;;;;;;12.70;7.90;;;;;;;;;;4992623;28;20466;-71
2024/01/06 15:40:09;;;;;;;14.80;7.83;;;;;;;;;;4992618;28;20903;-71
2024/01/06 15:42:35;;;;;;;13.97;7.93;;;;;;;;;;4992350;28;20902;-72
2024/01/06 15:45:01;;;;;;;15.50;9.10;;;;;;;;;;4992330;28;20813;-71
2024/01/06 15:47:27;;;;;;;16.80;10.23;;;;;;;;;;4992264;28;20422;-72
2024/01/06 15:49:53;;;;;;;14.50;8.70;;;;;;;;;;4992249;28;20407;-72
2024/01/06 15:52:21;;;;;;;19.97;9.50;;;;;;;;;;4992163;28;20491;-72
2024/01/06 15:54:48;;;;;;;13.60;8.33;;;;;;;;;;4992023;28;20473;-72
2024/01/06 15:57:14;;;;;;;19.23;8.50;;;;;;;;;;4992247;28;20965;-72
2024/01/06 15:59:40;;;;;;;19.23;9.33;;;;;;;;;;4991984;28;20403;-72
2024/01/06 16:02:06;;;;;;;17.33;10.90;;;;;;;;;;4992012;28;20840;-72
2024/01/06 16:04:32;;;;;;;21.50;10.63;;;;;;;;;;4992079;28;20780;-71
2024/01/06 16:06:58;;;;;;;19.97;10.27;;;;;;;;;;4992191;28;20426;-71
2024/01/06 16:09:25;;;;;;;23.00;11.37;;;;;;;;;;4992225;28;20432;-71
2024/01/06 16:11:52;;;;;;;23.17;9.23;;;;;;;;;;4992268;28;20480;-72
2024/01/06 16:14:18;;;;;;;18.17;10.40;;;;;;;;;;4990562;28;20426;-72
2024/01/06 16:16:43;;;;;;;25.10;11.20;;;;;;;;;;4991982;28;20469;-72
2024/01/06 16:19:10;;;;;;;21.77;10.43;;;;;;;;;;4992375;28;20411;-72
2024/01/06 16:21:35;;;;;;;19.20;10.80;;;;;;;;;;4992216;28;20430;-72
2024/01/06 16:24:02;;;;;;;28.20;11.80;;;;;;;;;;4991820;28;20411;-72
2024/01/06 16:26:28;;;;;;;24.47;12.17;;;;;;;;;;4992135;28;20422;-71
2024/01/06 16:28:54;;;;;;;19.83;10.50;;;;;;;;;;4992333;28;20411;-72
2024/01/06 16:31:20;;;;;;;26.13;11.40;;;;;;;;;;4992445;28;20526;-72
2024/01/06 16:33:46;;;;;;;25.33;13.23;;;;;;;;;;4995055;28;20446;-72
2024/01/06 16:36:12;;;;;;;26.53;11.20;;;;;;;;;;4995359;28;20419;-72
2024/01/06 16:38:38;;;;;;;25.83;12.17;;;;;;;;;;4995706;28;20439;-71
2024/01/06 16:41:05;;;;;;;22.93;11.73;;;;;;;;;;4994048;28;20438;-72
2024/01/06 16:43:37;;;;;;;23.57;11.20;;;;;;;;;;4995169;28;20403;-71
2024/01/06 16:46:03;;;;;;;29.20;12.70;;;;;;;;;;4994108;28;20485;-71
2024/01/06 16:48:29;;;;;;;24.10;12.33;;;;;;;;;;4995793;28;20414;-71
2024/01/06 16:50:55;;;;;;;27.77;12.83;;;;;;;;;;4995449;28;20525;-71
2024/01/06 16:53:21;;;;;;;25.33;13.00;;;;;;;;;;4995182;28;20419;-72
2024/01/06 16:55:47;;;;;;;33.30;12.77;;;;;;;;;;4993848;28;20426;-71
2024/01/06 16:58:13;;;;;;;26.23;11.40;;;;;;;;;;4994958;28;20466;-71
2024/01/06 17:00:39;;;;;;;26.47;13.47;;;;;;;;;;4994830;28;20447;-72
2024/01/06 17:03:05;;;;;;;24.77;12.93;;;;;;;;;;4995328;28;20407;-71
2024/01/06 17:05:31;;;;;;;36.77;13.90;;;;;;;;;;4994963;28;20515;-72
2024/01/06 17:07:57;;;;;;;27.90;12.90;;;;;;;;;;4995032;28;20830;-72
2024/01/06 17:10:25;;;;;;;29.37;13.70;;;;;;;;;;4995116;28;20498;-71
2024/01/06 17:12:54;;;;;;;25.37;12.80;;;;;;;;;;4995380;28;20422;-71
2024/01/06 17:15:24;;;;;;;35.13;15.07;;;;;;;;;;4995117;28;20435;-72
2024/01/06 17:17:50;;;;;;;30.70;14.50;;;;;;;;;;4995454;28;20490;-70
2024/01/06 17:20:16;;;;;;;31.70;14.30;;;;;;;;;;4995963;28;20741;-71
2024/01/06 17:22:44;;;;;;;34.07;14.17;;;;;;;;;;4995239;28;20782;-72
2024/01/06 17:25:12;;;;;;;31.00;15.10;;;;;;;;;;4994674;28;20786;-71
2024/01/06 17:27:40;;;;;;;28.63;14.40;;;;;;;;;;4994397;28;20412;-72
2024/01/06 17:30:06;;;;;;;33.00;15.03;;;;;;;;;;4994515;28;20430;-71
2024/01/06 17:32:35;;;;;;;29.03;14.03;;;;;;;;;;4994378;28;20466;-71
2024/01/06 17:35:02;;;;;;;24.10;13.40;;;;;;;;;;4994221;28;20407;-71
2024/01/06 17:37:28;;;;;;;28.27;13.70;;;;;;;;;;4994171;28;20516;-71
2024/01/06 17:39:54;;;;;;;34.10;15.53;;;;;;;;;;4994281;28;20403;-72
2024/01/06 17:42:24;;;;;;;27.40;15.03;;;;;;;;;;4993833;28;20462;-71
2024/01/06 17:44:50;;;;;;;33.97;14.10;;;;;;;;;;4994044;28;20832;-71
2024/01/06 17:47:16;;;;;;;27.23;13.87;;;;;;;;;;4994123;28;20884;-72
2024/01/06 17:49:42;;;;;;;27.10;14.13;;;;;;;;;;4994108;28;20403;-71
2024/01/06 17:52:10;;;;;;;28.90;14.23;;;;;;;;;;4993977;28;20462;-71
2024/01/06 17:54:36;;;;;;;35.67;14.07;;;;;;;;;;4993911;28;20492;-71
2024/01/06 17:57:02;;;;;;;34.67;15.77;;;;;;;;;;4994798;28;20462;-73
2024/01/06 17:59:28;;;;;;;39.83;15.47;;;;;;;;;;4994826;28;20486;-71
2024/01/06 18:01:54;;;;;;;33.87;15.80;;;;;;;;;;4994173;28;20484;-71
2024/01/06 18:04:20;;;;;;;46.90;14.73;;;;;;;;;;4993869;28;20418;-71
2024/01/06 18:06:46;;;;;;;35.60;16.60;;;;;;;;;;4993710;28;20501;-72
2024/01/06 18:09:12;;;;;;;38.97;16.33;;;;;;;;;;4993981;28;20451;-71
2024/01/06 18:11:40;;;;;;;34.40;14.57;;;;;;;;;;4993883;28;20435;-71
2024/01/06 18:14:06;;;;;;;40.33;17.03;;;;;;;;;;4993774;28;20485;-71
2024/01/06 18:16:32;;;;;;;32.90;14.77;;;;;;;;;;4994148;28;20488;-71
2024/01/06 18:18:58;;;;;;;30.23;15.60;;;;;;;;;;4993619;28;20415;-71
2024/01/06 18:21:24;;;;;;;43.90;17.47;;;;;;;;;;4993611;28;20918;-71
2024/01/06 18:23:50;;;;;;;40.10;17.00;;;;;;;;;;4993335;28;20457;-72
2024/01/06 18:26:16;;;;;;;37.27;17.80;;;;;;;;;;4993566;28;20419;-72
2024/01/06 18:28:42;;;;;;;36.40;17.40;;;;;;;;;;4993218;28;20810;-72
2024/01/06 18:31:08;;;;;;;46.23;18.03;;;;;;;;;;4993175;28;20513;-72
2024/01/06 18:33:34;;;;;;;40.70;17.57;;;;;;;;;;4992605;28;20508;-72
2024/01/06 18:36:00;;;;;;;39.63;17.40;;;;;;;;;;4993069;28;20417;-72
2024/01/06 18:38:26;;;;;;;38.60;16.30;;;;;;;;;;4993079;28;20595;-72
2024/01/06 18:40:52;;;;;;;37.10;16.40;;;;;;;;;;4993121;28;20822;-72
2024/01/06 18:43:18;;;;;;;41.30;17.67;;;;;;;;;;4993225;28;20909;-72
2024/01/06 18:45:44;;;;;;;50.00;20.33;;;;;;;;;;4992763;28;20434;-72
2024/01/06 18:48:10;;;;;;;42.70;17.10;;;;;;;;;;4992858;28;20411;-72
2024/01/06 18:50:36;;;;;;;46.37;17.87;;;;;;;;;;4992530;28;20431;-72
2024/01/06 18:53:02;;;;;;;39.07;15.90;;;;;;;;;;4992846;28;20415;-72
2024/01/06 18:55:28;;;;;;;39.77;16.83;;;;;;;;;;4991833;28;20494;-72
2024/01/06 18:57:54;;;;;;;38.30;16.83;;;;;;;;;;4992959;28;20550;-72
2024/01/06 19:00:20;;;;;;;36.93;16.20;;;;;;;;;;4992835;28;20403;-72
2024/01/06 19:02:47;;;;;;;34.17;15.00;;;;;;;;;;4992629;28;20443;-72
2024/01/06 19:05:13;;;;;;;39.67;17.33;;;;;;;;;;4992250;28;20434;-72
2024/01/06 19:07:39;;;;;;;36.67;16.43;;;;;;;;;;4992897;28;20442;-71
2024/01/06 19:10:05;;;;;;;43.33;18.60;;;;;;;;;;4992521;28;20411;-71
2024/01/06 19:12:31;;;;;;;38.53;17.83;;;;;;;;;;4992535;28;20865;-71
2024/01/06 19:14:57;;;;;;;42.93;18.27;;;;;;;;;;4992444;28;20830;-71
2024/01/06 19:17:24;;;;;;;40.97;16.67;;;;;;;;;;4993072;28;20466;-71
2024/01/06 19:19:50;;;;;;;42.33;19.47;;;;;;;;;;4993036;28;20495;-72
2024/01/06 19:22:16;;;;;;;44.17;18.73;;;;;;;;;;4992934;28;20522;-72
2024/01/06 19:24:42;;;;;;;36.97;16.27;;;;;;;;;;4992963;28;20485;-72
2024/01/06 19:27:08;;;;;;;47.33;19.00;;;;;;;;;;4992711;28;20450;-72
2024/01/06 19:29:34;;;;;;;37.93;16.20;;;;;;;;;;4992613;28;20521;-72
2024/01/06 19:32:00;;;;;;;42.67;18.20;;;;;;;;;;4992632;28;20506;-72
2024/01/06 19:34:26;;;;;;;35.87;15.97;;;;;;;;;;4992196;28;20447;-72
2024/01/06 19:36:52;;;;;;;34.67;15.60;;;;;;;;;;4992517;28;20490;-72
2024/01/06 19:39:18;;;;;;;45.33;17.07;;;;;;;;;;4992731;28;20407;-72
2024/01/06 19:41:44;;;;;;;42.73;17.17;;;;;;;;;;4992307;28;20533;-73
2024/01/06 19:44:10;;;;;;;32.43;15.70;;;;;;;;;;4992150;28;20966;-72
2024/01/06 19:46:36;;;;;;;44.70;18.27;;;;;;;;;;4992258;28;20782;-72
2024/01/06 19:49:02;;;;;;;45.07;18.00;;;;;;;;;;4992349;28;20495;-72
2024/01/06 19:51:28;;;;;;;45.17;19.93;;;;;;;;;;4991008;28;20545;-72
2024/01/06 19:53:54;;;;;;;46.40;17.23;;;;;;;;;;4992165;28;20431;-72
2024/01/06 19:56:20;;;;;;;39.90;18.00;;;;;;;;;;4992175;28;20422;-72
2024/01/06 19:58:46;;;;;;;40.40;18.23;;;;;;;;;;4992239;28;20418;-72
2024/01/06 20:01:12;;;;;;;40.33;16.67;;;;;;;;;;4992059;28;20539;-72
2024/01/06 20:03:38;;;;;;;33.90;17.17;;;;;;;;;;4991895;28;20435;-72
2024/01/06 20:06:04;;;;;;;35.60;16.87;;;;;;;;;;4993394;28;20969;-72
2024/01/06 20:08:32;;;;;;;45.53;18.30;;;;;;;;;;4995946;28;20417;-72
2024/01/06 20:11:00;;;;;;;38.97;18.37;;;;;;;;;;4995741;28;20430;-72
2024/01/06 20:13:27;;;;;;;43.00;18.50;;;;;;;;;;4995557;28;20415;-72
2024/01/06 20:15:54;;;;;;;42.03;17.30;;;;;;;;;;4995840;28;20415;-72
2024/01/06 20:18:21;;;;;;;39.07;18.23;;;;;;;;;;4995792;28;20824;-72
2024/01/06 20:20:47;;;;;;;41.20;17.10;;;;;;;;;;4995583;28;20427;-72
2024/01/06 20:23:13;;;;;;;43.70;19.10;;;;;;;;;;4995607;28;20457;-72
2024/01/06 20:25:42;;;;;;;40.60;18.47;;;;;;;;;;4995452;28;20415;-72
2024/01/06 20:28:08;;;;;;;40.77;19.90;;;;;;;;;;4995636;28;20423;-72